createdAt,value
2022-09-03T00:01:01.677Z,7.70
2022-09-03T00:03:37.391Z,7.80
2022-09-03T00:06:23.361Z,7.80
2022-09-03T00:09:13.963Z,7.90
2022-09-03T00:12:00.485Z,8.00
2022-09-03T00:14:36.514Z,8.10
2022-09-03T00:17:10.510Z,8.10
2022-09-03T00:20:10.468Z,8.20
2022-09-03T00:22:48.665Z,8.20
2022-09-03T00:25:22.918Z,8.20
2022-09-03T00:27:55.417Z,8.30
2022-09-03T00:30:24.466Z,8.30
2022-09-03T00:33:03.112Z,8.30
2022-09-03T00:35:35.946Z,8.30
2022-09-03T00:38:02.840Z,8.30
2022-09-03T00:40:44.235Z,8.30
2022-09-03T00:43:32.353Z,8.30
2022-09-03T00:46:18.341Z,8.40
2022-09-03T00:49:22.961Z,8.40
2022-09-03T00:52:14.871Z,8.40
2022-09-03T00:54:49.134Z,8.40
2022-09-03T00:57:53.092Z,8.40
2022-09-03T01:00:21.412Z,8.40
2022-09-03T01:02:57.554Z,8.40
2022-09-03T01:05:39.481Z,8.40
2022-09-03T01:08:51.018Z,8.40
2022-09-03T01:11:47.318Z,8.40
2022-09-03T01:14:42.121Z,8.40
2022-09-03T01:17:21.179Z,8.30
2022-09-03T01:19:55.953Z,8.40
2022-09-03T01:22:58.550Z,8.30
2022-09-03T01:25:39.050Z,8.30
2022-09-03T01:28:43.279Z,8.20
2022-09-03T01:31:27.146Z,8.20
2022-09-03T01:34:03.573Z,8.10
2022-09-03T01:36:30.471Z,8.00
2022-09-03T01:39:01.914Z,8.00
2022-09-03T01:42:11.533Z,7.90
2022-09-03T01:45:07.554Z,7.90
2022-09-03T01:47:52.035Z,7.80
2022-09-03T01:50:21.918Z,7.70
2022-09-03T01:53:19.066Z,7.60
2022-09-03T01:56:13.411Z,7.50
2022-09-03T01:58:47.129Z,7.30
2022-09-03T02:01:22.718Z,7.20
2022-09-03T02:03:50.926Z,7.10
2022-09-03T02:06:20.832Z,7.00
2022-09-03T02:08:47.992Z,6.90
2022-09-03T02:11:14.950Z,6.80
2022-09-03T02:13:46.868Z,6.70
2022-09-03T02:16:16.715Z,6.70
2022-09-03T02:18:48.352Z,6.60
2022-09-03T02:21:20.579Z,6.50
2022-09-03T02:23:49.523Z,6.40
2022-09-03T02:26:20.346Z,6.30
2022-09-03T02:28:48.087Z,6.20
2022-09-03T02:31:15.090Z,6.10
2022-09-03T02:33:45.718Z,6.10
2022-09-03T02:36:14.890Z,6.10
2022-09-03T02:38:44.561Z,6.00
2022-09-03T02:41:13.349Z,5.90
2022-09-03T02:43:55.037Z,5.80
2022-09-03T02:46:27.169Z,5.80
2022-09-03T02:48:55.135Z,5.70
2022-09-03T02:51:22.378Z,5.70
2022-09-03T02:53:49.478Z,5.60
2022-09-03T02:56:18.380Z,5.60
2022-09-03T02:58:45.325Z,5.60
2022-09-03T03:01:19.718Z,5.60
2022-09-03T03:03:51.245Z,5.60
2022-09-03T03:06:20.923Z,5.70
2022-09-03T03:08:49.936Z,5.70
2022-09-03T03:11:18.480Z,5.70
2022-09-03T03:13:46.675Z,5.60
2022-09-03T03:16:15.720Z,5.60
2022-09-03T03:18:42.946Z,5.50
2022-09-03T03:21:18.125Z,5.50
2022-09-03T03:23:45.530Z,5.50
2022-09-03T03:26:16.184Z,5.40
2022-09-03T03:28:43.086Z,5.40
2022-09-03T03:31:21.606Z,5.40
2022-09-03T03:33:56.898Z,5.30
2022-09-03T03:36:26.048Z,5.20
2022-09-03T03:38:58.175Z,5.20
2022-09-03T03:41:36.497Z,5.10
2022-09-03T03:44:06.101Z,5.20
2022-09-03T03:46:39.433Z,5.20
2022-09-03T03:49:07.821Z,5.20
2022-09-03T03:51:36.200Z,5.20
2022-09-03T03:54:05.399Z,5.30
2022-09-03T03:56:33.720Z,5.30
2022-09-03T03:59:00.964Z,5.40
2022-09-03T04:01:28.854Z,5.50
2022-09-03T04:03:56.852Z,5.60
2022-09-03T04:06:23.993Z,5.70
2022-09-03T04:08:51.155Z,5.70
2022-09-03T04:11:23.452Z,5.80
2022-09-03T04:13:51.530Z,5.90
2022-09-03T04:16:24.336Z,6.00
2022-09-03T04:18:53.848Z,6.10
2022-09-03T04:21:27.865Z,6.20
2022-09-03T04:23:56.621Z,6.30
2022-09-03T04:26:26.868Z,6.40
2022-09-03T04:28:54.251Z,6.50
2022-09-03T04:31:21.383Z,6.60
2022-09-03T04:33:49.350Z,6.70
2022-09-03T04:36:19.852Z,6.80
2022-09-03T04:38:48.953Z,6.90
2022-09-03T04:41:21.798Z,7.00
2022-09-03T04:43:51.586Z,7.10
2022-09-03T04:46:20.824Z,7.10
2022-09-03T04:48:52.945Z,7.20
2022-09-03T04:51:23.404Z,7.30
2022-09-03T04:53:56.917Z,7.40
2022-09-03T04:56:29.821Z,7.60
2022-09-03T04:59:02.647Z,7.80
2022-09-03T05:01:32.906Z,8.00
2022-09-03T05:04:00.845Z,8.30
2022-09-03T05:06:29.417Z,8.50
2022-09-03T05:08:57.070Z,8.80
2022-09-03T05:11:25.128Z,9.00
2022-09-03T05:13:54.309Z,9.40
2022-09-03T05:16:22.314Z,10.10
2022-09-03T05:18:54.107Z,11.00
2022-09-03T05:21:22.544Z,12.00
2022-09-03T05:23:50.993Z,12.80
2022-09-03T05:26:26.858Z,13.50
2022-09-03T05:28:57.234Z,14.20
2022-09-03T05:31:26.538Z,15.00
2022-09-03T05:33:58.491Z,15.70
2022-09-03T05:36:28.736Z,16.30
2022-09-03T05:38:56.501Z,17.00
2022-09-03T05:41:26.260Z,17.50
2022-09-03T05:43:59.420Z,18.00
2022-09-03T05:46:32.411Z,18.40
2022-09-03T05:49:05.014Z,18.70
2022-09-03T05:51:32.954Z,19.10
2022-09-03T05:54:00.147Z,19.40
2022-09-03T05:56:30.645Z,19.60
2022-09-03T05:59:03.246Z,19.80
2022-09-03T06:01:32.678Z,20.00
2022-09-03T06:04:00.741Z,20.00
2022-09-03T06:06:29.341Z,20.00
2022-09-03T06:09:18.164Z,19.90
2022-09-03T06:11:46.302Z,19.70
2022-09-03T06:14:14.805Z,19.30
2022-09-03T06:16:44.742Z,18.70
2022-09-03T06:19:13.269Z,18.10
2022-09-03T06:21:45.517Z,17.60
2022-09-03T06:24:15.123Z,17.40
2022-09-03T06:26:43.043Z,17.20
2022-09-03T06:29:10.699Z,16.90
2022-09-03T06:31:37.942Z,16.60
2022-09-03T06:34:06.145Z,16.20
2022-09-03T06:36:33.293Z,16.00
2022-09-03T06:39:00.370Z,15.70
2022-09-03T06:41:32.602Z,15.60
2022-09-03T06:44:03.442Z,15.60
2022-09-03T06:46:35.796Z,15.80
2022-09-03T06:49:03.446Z,16.20
2022-09-03T06:51:33.059Z,17.00
2022-09-03T06:54:03.005Z,17.80
2022-09-03T06:56:32.381Z,18.60
2022-09-03T06:59:06.868Z,19.20
2022-09-03T07:01:35.197Z,19.60
2022-09-03T07:04:04.882Z,20.00
2022-09-03T07:06:34.250Z,20.10
2022-09-03T07:09:01.229Z,20.30
2022-09-03T07:11:31.480Z,20.50
2022-09-03T07:13:59.688Z,20.70
2022-09-03T07:16:29.416Z,20.80
2022-09-03T07:18:57.751Z,20.80
2022-09-03T07:21:27.633Z,21.00
2022-09-03T07:23:56.080Z,21.30
2022-09-03T07:26:35.592Z,21.50
2022-09-03T07:29:03.070Z,21.60
2022-09-03T07:31:35.805Z,21.70
2022-09-03T07:34:10.054Z,21.70
2022-09-03T07:36:48.708Z,21.40
2022-09-03T07:39:17.932Z,21.20
2022-09-03T07:41:46.424Z,21.10
2022-09-03T07:44:20.029Z,21.00
2022-09-03T07:46:49.462Z,21.10
2022-09-03T07:49:17.491Z,21.20
2022-09-03T07:51:46.820Z,21.10
2022-09-03T07:54:13.853Z,21.10
2022-09-03T07:56:41.354Z,20.80
2022-09-03T07:59:09.489Z,20.30
2022-09-03T08:01:38.380Z,19.70
2022-09-03T08:04:09.817Z,19.10
2022-09-03T08:06:38.427Z,18.60
2022-09-03T08:09:07.690Z,18.40
2022-09-03T08:11:38.267Z,18.40
2022-09-03T08:14:08.120Z,18.50
2022-09-03T08:16:44.104Z,18.60
2022-09-03T08:19:13.359Z,18.70
2022-09-03T08:21:43.864Z,18.90
2022-09-03T08:24:12.485Z,18.80
2022-09-03T08:26:46.345Z,18.70
2022-09-03T08:29:17.582Z,18.80
2022-09-03T08:31:44.654Z,18.90
2022-09-03T08:34:13.252Z,19.00
2022-09-03T08:36:43.479Z,18.90
2022-09-03T08:39:11.581Z,18.50
2022-09-03T08:41:53.468Z,18.00
2022-09-03T08:44:47.703Z,17.70
2022-09-03T08:48:03.475Z,17.80
2022-09-03T08:50:35.494Z,18.20
2022-09-03T08:53:11.604Z,18.80
2022-09-03T08:55:56.656Z,19.10
2022-09-03T08:58:27.599Z,19.30
2022-09-03T09:01:03.039Z,19.00
2022-09-03T09:03:30.973Z,18.70
2022-09-03T09:06:34.048Z,18.10
2022-09-03T09:09:24.767Z,17.60
2022-09-03T09:11:51.805Z,16.80
2022-09-03T09:14:35.850Z,15.80
2022-09-03T09:17:13.441Z,14.70
2022-09-03T09:20:03.906Z,13.80
2022-09-03T09:22:38.539Z,13.30
2022-09-03T09:25:20.642Z,13.00
2022-09-03T09:27:52.374Z,12.80
2022-09-03T09:30:20.095Z,12.80
2022-09-03T09:32:49.884Z,12.80
2022-09-03T09:35:18.903Z,12.70
2022-09-03T09:37:54.505Z,12.90
2022-09-03T09:40:34.542Z,13.00
2022-09-03T09:43:27.869Z,13.00
2022-09-03T09:45:55.644Z,13.00
2022-09-03T09:48:31.741Z,13.00
2022-09-03T09:51:12.095Z,13.20
2022-09-03T09:53:40.878Z,13.60
2022-09-03T09:56:08.289Z,13.90
2022-09-03T09:58:36.192Z,14.10
2022-09-03T10:01:22.115Z,14.00
2022-09-03T10:03:57.359Z,13.70
2022-09-03T10:06:50.056Z,13.50
2022-09-03T10:09:19.865Z,13.30
2022-09-03T10:11:57.536Z,13.10
2022-09-03T10:14:35.246Z,13.00
2022-09-03T10:17:12.628Z,13.10
2022-09-03T10:20:27.812Z,13.10
2022-09-03T10:22:59.407Z,13.30
2022-09-03T10:25:50.325Z,13.60
2022-09-03T10:28:18.342Z,13.70
2022-09-03T10:31:27.417Z,14.00
2022-09-03T10:34:37.375Z,14.20
2022-09-03T10:37:55.484Z,14.40
2022-09-03T10:40:31.671Z,14.60
2022-09-03T10:43:32.669Z,14.80
2022-09-03T10:46:01.477Z,15.20
2022-09-03T10:48:46.838Z,15.40
2022-09-03T10:51:48.848Z,15.60
2022-09-03T10:54:38.125Z,15.80
2022-09-03T10:57:37.975Z,16.00
2022-09-03T11:00:12.843Z,16.40
2022-09-03T11:03:12.861Z,16.40
2022-09-03T11:06:21.965Z,16.50
2022-09-03T11:09:15.208Z,16.20
2022-09-03T11:11:47.769Z,15.60
2022-09-03T11:14:25.626Z,15.20
2022-09-03T11:16:59.126Z,14.80
2022-09-03T11:19:48.156Z,14.60
2022-09-03T11:22:20.999Z,14.50
2022-09-03T11:24:55.841Z,14.60
2022-09-03T11:27:33.131Z,14.80
2022-09-03T11:30:10.858Z,15.00
2022-09-03T11:32:41.083Z,15.20
2022-09-03T11:35:16.795Z,15.40
2022-09-03T11:38:15.500Z,15.40
2022-09-03T11:41:21.365Z,15.60
2022-09-03T11:43:48.633Z,15.90
2022-09-03T11:46:21.892Z,16.20
2022-09-03T11:48:58.182Z,16.40
2022-09-03T11:51:30.760Z,16.60
2022-09-03T11:54:04.947Z,16.80
2022-09-03T11:56:34.445Z,16.90
2022-09-03T11:59:07.269Z,16.80
2022-09-03T12:01:44.440Z,16.80
2022-09-03T12:04:15.864Z,16.80
2022-09-03T12:06:54.583Z,16.60
2022-09-03T12:09:30.778Z,16.50
2022-09-03T12:12:14.843Z,16.40
2022-09-03T12:15:07.659Z,16.30
2022-09-03T12:17:34.682Z,16.10
2022-09-03T12:20:01.664Z,15.80
2022-09-03T12:22:31.313Z,15.70
2022-09-03T12:25:15.505Z,15.80
2022-09-03T12:27:45.557Z,16.00
2022-09-03T12:30:19.007Z,16.00
2022-09-03T12:32:47.530Z,16.00
2022-09-03T12:38:09.564Z,15.90
2022-09-03T12:43:38.604Z,15.90
2022-09-03T12:46:13.736Z,15.90
2022-09-03T12:49:29.204Z,15.80
2022-09-03T12:51:53.534Z,15.80
2022-09-03T12:54:22.933Z,15.80
2022-09-03T12:56:57.382Z,16.00
2022-09-03T12:59:26.437Z,16.10
2022-09-03T13:01:57.807Z,16.40
2022-09-03T13:04:33.905Z,16.70
2022-09-03T13:07:05.244Z,16.90
2022-09-03T13:09:35.441Z,17.00
2022-09-03T13:12:05.868Z,17.20
2022-09-03T13:14:47.739Z,17.20
2022-09-03T13:17:20.719Z,17.00
2022-09-03T13:19:56.237Z,16.90
2022-09-03T13:22:36.199Z,17.00
2022-09-03T13:25:31.274Z,16.90
2022-09-03T13:28:48.112Z,16.80
2022-09-03T13:31:46.849Z,16.80
2022-09-03T13:34:32.062Z,16.40
2022-09-03T13:37:19.957Z,16.20
2022-09-03T13:39:56.112Z,16.10
2022-09-03T13:42:31.366Z,16.20
2022-09-03T13:45:11.232Z,16.30
2022-09-03T13:48:08.295Z,16.50
2022-09-03T13:51:09.949Z,16.50
2022-09-03T13:54:48.116Z,16.30
2022-09-03T13:57:40.219Z,16.20
2022-09-03T14:00:14.073Z,16.00
2022-09-03T14:03:04.085Z,15.70
2022-09-03T14:05:40.401Z,15.40
2022-09-03T14:08:32.697Z,15.10
2022-09-03T14:11:14.653Z,15.00
2022-09-03T14:13:59.897Z,15.00
2022-09-03T14:17:02.900Z,15.10
2022-09-03T14:19:56.098Z,15.20
2022-09-03T14:22:43.781Z,15.30
2022-09-03T14:25:17.067Z,15.40
2022-09-03T14:27:44.467Z,15.40
2022-09-03T14:30:27.458Z,15.40
2022-09-03T14:33:31.687Z,15.50
2022-09-03T14:36:13.877Z,15.60
2022-09-03T14:38:58.139Z,15.60
2022-09-03T14:41:43.292Z,15.70
2022-09-03T14:44:27.081Z,15.60
2022-09-03T14:47:03.906Z,15.50
2022-09-03T14:49:33.633Z,15.30
2022-09-03T14:52:07.996Z,15.20
2022-09-03T14:55:01.425Z,15.20
2022-09-03T14:57:48.380Z,15.20
2022-09-03T15:00:18.471Z,15.10
2022-09-03T15:03:08.140Z,15.10
2022-09-03T15:05:56.453Z,15.20
2022-09-03T15:08:51.195Z,15.20
2022-09-03T15:11:26.760Z,15.20
2022-09-03T15:14:15.122Z,15.30
2022-09-03T15:16:50.871Z,15.30
2022-09-03T15:19:59.685Z,15.30
2022-09-03T15:22:50.181Z,15.20
2022-09-03T15:25:48.358Z,15.00
2022-09-03T15:28:37.519Z,14.90
2022-09-03T15:31:34.522Z,14.80
2022-09-03T15:34:28.415Z,14.70
2022-09-03T15:36:57.635Z,14.50
2022-09-03T15:39:39.853Z,14.40
2022-09-03T15:42:27.791Z,14.40
2022-09-03T15:45:01.269Z,14.30
2022-09-03T15:47:50.846Z,14.30
2022-09-03T15:50:34.832Z,14.20
2022-09-03T15:53:14.409Z,14.20
2022-09-03T15:55:43.979Z,14.10
2022-09-03T15:58:35.989Z,14.00
2022-09-03T16:01:20.107Z,14.00
2022-09-03T16:04:25.050Z,13.90
2022-09-03T16:07:04.413Z,13.90
2022-09-03T16:09:45.004Z,13.90
2022-09-03T16:12:45.179Z,13.80
2022-09-03T16:15:28.259Z,13.80
2022-09-03T16:18:23.303Z,13.80
2022-09-03T16:20:56.230Z,13.80
2022-09-03T16:23:41.527Z,13.70
2022-09-03T16:26:15.604Z,13.60
2022-09-03T16:29:00.071Z,13.60
2022-09-03T16:31:41.807Z,13.50
2022-09-03T16:34:23.518Z,13.40
2022-09-03T16:36:59.341Z,13.40
2022-09-03T16:39:38.119Z,13.30
2022-09-03T16:42:30.699Z,13.30
2022-09-03T16:45:08.798Z,13.30
2022-09-03T16:48:02.607Z,13.20
2022-09-03T16:50:35.289Z,13.10
2022-09-03T16:53:37.890Z,13.10
2022-09-03T16:56:07.800Z,13.10
2022-09-03T16:58:46.120Z,13.00
2022-09-03T17:01:13.110Z,12.90
2022-09-03T17:04:06.273Z,12.90
2022-09-03T17:07:00.621Z,12.80
2022-09-03T17:09:50.945Z,12.80
2022-09-03T17:12:39.701Z,12.70
2022-09-03T17:15:16.880Z,12.70
2022-09-03T17:18:02.847Z,12.60
2022-09-03T17:20:51.628Z,12.60
2022-09-03T17:23:24.350Z,12.60
2022-09-03T17:26:03.162Z,12.50
2022-09-03T17:28:58.841Z,12.50
2022-09-03T17:31:49.617Z,12.50
2022-09-03T17:34:52.014Z,12.40
2022-09-03T17:37:44.848Z,12.30
2022-09-03T17:40:33.039Z,12.30
2022-09-03T17:43:31.531Z,12.20
2022-09-03T17:46:30.871Z,12.20
2022-09-03T17:49:02.817Z,12.10
2022-09-03T17:51:50.887Z,12.10
2022-09-03T17:54:51.989Z,12.10
2022-09-03T17:57:25.188Z,12.10
2022-09-03T18:00:10.616Z,12.00
2022-09-03T18:02:56.362Z,12.00
2022-09-03T18:05:28.415Z,12.00
2022-09-03T18:08:01.448Z,12.00
2022-09-03T18:10:45.253Z,12.00
2022-09-03T18:13:53.641Z,11.90
2022-09-03T18:17:00.696Z,11.90
2022-09-03T18:20:06.564Z,11.90
2022-09-03T18:23:12.171Z,11.90
2022-09-03T18:26:02.714Z,11.80
2022-09-03T18:29:31.396Z,11.80
2022-09-03T18:32:16.528Z,11.80
2022-09-03T18:35:02.062Z,11.80
2022-09-03T18:37:47.439Z,11.80
2022-09-03T18:40:41.301Z,11.70
2022-09-03T18:43:42.946Z,11.60
2022-09-03T18:50:27.509Z,11.50
2022-09-03T18:53:21.143Z,11.40
2022-09-03T18:56:30.136Z,11.40
2022-09-03T18:59:34.191Z,11.40
2022-09-03T19:02:45.684Z,11.30
2022-09-03T19:05:41.754Z,11.20
2022-09-03T19:08:27.253Z,11.10
2022-09-03T19:11:15.492Z,11.10
2022-09-03T19:14:01.496Z,11.00
2022-09-03T19:16:52.937Z,10.90
2022-09-03T19:20:12.026Z,10.80
2022-09-03T19:23:00.218Z,10.70
2022-09-03T19:25:47.858Z,10.60
2022-09-03T19:28:42.667Z,10.40
2022-09-03T19:32:05.784Z,10.30
2022-09-03T19:35:09.065Z,10.10
2022-09-03T19:38:32.236Z,10.00
2022-09-03T19:41:43.940Z,9.90
2022-09-03T19:44:35.608Z,9.70
2022-09-03T19:47:23.670Z,9.60
2022-09-03T19:50:31.961Z,9.50
2022-09-03T19:53:23.986Z,9.40
2022-09-03T19:56:14.537Z,9.30
2022-09-03T19:59:30.058Z,9.20
2022-09-03T20:02:16.814Z,9.10
2022-09-03T20:05:26.150Z,9.00
2022-09-03T20:08:15.291Z,8.90
2022-09-03T20:10:44.327Z,8.80
2022-09-03T20:13:20.759Z,8.70
2022-09-03T20:15:59.724Z,8.60
2022-09-03T20:18:48.134Z,8.50
2022-09-03T20:21:23.968Z,8.40
2022-09-03T20:24:28.573Z,8.40
2022-09-03T20:27:07.170Z,8.30
2022-09-03T20:29:52.105Z,8.20
2022-09-03T20:32:18.988Z,8.10
2022-09-03T20:35:03.632Z,8.00
2022-09-03T20:37:53.603Z,8.00
2022-09-03T20:40:28.912Z,7.90
2022-09-03T20:43:20.816Z,7.80
2022-09-03T20:46:00.322Z,7.70
2022-09-03T20:48:43.409Z,7.70
2022-09-03T20:51:23.185Z,7.60
2022-09-03T20:54:36.209Z,7.50
2022-09-03T20:57:11.637Z,7.50
2022-09-03T20:59:50.152Z,7.40
2022-09-03T21:02:18.747Z,7.40
2022-09-03T21:05:02.231Z,7.30
2022-09-03T21:08:11.357Z,7.20
2022-09-03T21:10:53.220Z,7.20
2022-09-03T21:13:53.595Z,7.10
2022-09-03T21:16:41.818Z,7.00
2022-09-03T21:19:11.941Z,7.00
2022-09-03T21:21:56.765Z,6.90
2022-09-03T21:24:35.235Z,6.90
2022-09-03T21:27:10.988Z,7.00
2022-09-03T21:29:41.587Z,7.00
2022-09-03T21:32:16.882Z,6.90
2022-09-03T21:34:58.626Z,6.90
2022-09-03T21:37:25.597Z,6.90
2022-09-03T21:39:56.202Z,6.90
2022-09-03T21:42:49.158Z,6.90
2022-09-03T21:45:24.013Z,7.00
2022-09-03T21:47:59.004Z,7.00
2022-09-03T21:50:45.436Z,7.00
2022-09-03T21:53:28.725Z,7.00
2022-09-03T21:56:28.397Z,7.00
2022-09-03T21:59:19.851Z,7.00
2022-09-03T22:02:16.637Z,6.90
2022-09-03T22:04:44.108Z,6.90
2022-09-03T22:07:16.458Z,6.90
2022-09-03T22:09:56.549Z,6.90
2022-09-03T22:12:35.039Z,6.80
2022-09-03T22:15:04.526Z,6.80
2022-09-03T22:17:57.052Z,6.80
2022-09-03T22:20:26.328Z,6.70
2022-09-03T22:22:57.619Z,6.70
2022-09-03T22:25:46.208Z,6.60
2022-09-03T22:28:28.675Z,6.60
2022-09-03T22:31:29.284Z,6.50
2022-09-03T22:34:23.741Z,6.40
2022-09-03T22:36:54.521Z,6.30
2022-09-03T22:39:33.239Z,6.30
2022-09-03T22:42:12.822Z,6.30
2022-09-03T22:45:01.878Z,6.30
2022-09-03T22:47:37.430Z,6.20
2022-09-03T22:50:10.696Z,6.10
2022-09-03T22:52:49.557Z,6.10
2022-09-03T22:55:21.345Z,6.00
2022-09-03T22:58:05.421Z,6.00
2022-09-03T23:00:40.276Z,5.90
2022-09-03T23:03:30.153Z,5.90
2022-09-03T23:06:04.716Z,5.80
2022-09-03T23:08:49.847Z,5.80
2022-09-03T23:11:47.531Z,5.70
2022-09-03T23:14:23.069Z,5.70
2022-09-03T23:16:59.357Z,5.60
2022-09-03T23:19:47.574Z,5.60
2022-09-03T23:22:18.063Z,5.50
2022-09-03T23:25:08.760Z,5.50
2022-09-03T23:27:41.816Z,5.40
2022-09-03T23:30:09.419Z,5.40
2022-09-03T23:32:36.799Z,5.40
2022-09-03T23:35:11.549Z,5.30
2022-09-03T23:37:52.119Z,5.30
2022-09-03T23:40:46.226Z,5.30
2022-09-03T23:43:47.423Z,5.30
2022-09-03T23:46:19.854Z,5.40
2022-09-03T23:49:12.903Z,5.40
2022-09-03T23:51:49.972Z,5.30
2022-09-03T23:54:33.598Z,5.30
2022-09-03T23:57:24.809Z,5.30
